createdAt,value
2019-05-19T00:03:29.773Z,20.80
2019-05-19T00:08:34.501Z,20.80
2019-05-19T00:13:39.345Z,20.80
2019-05-19T00:18:44.225Z,20.70
2019-05-19T00:23:49.073Z,20.70
2019-05-19T00:28:54.029Z,20.70
2019-05-19T00:33:58.951Z,20.70
2019-05-19T00:39:05.475Z,20.70
2019-05-19T00:44:10.381Z,20.70
2019-05-19T00:49:15.327Z,20.70
2019-05-19T00:54:20.222Z,20.60
2019-05-19T00:59:26.708Z,20.60
2019-05-19T01:04:31.615Z,20.60
2019-05-19T01:09:36.458Z,20.60
2019-05-19T01:14:41.407Z,20.60
2019-05-19T01:19:55.703Z,20.60
2019-05-19T01:24:52.753Z,20.60
2019-05-19T01:29:57.540Z,20.50
2019-05-19T01:35:02.443Z,20.50
2019-05-19T01:40:08.528Z,20.50
2019-05-19T01:45:14.924Z,20.50
2019-05-19T01:50:19.640Z,20.40
2019-05-19T01:55:24.532Z,20.40
2019-05-19T02:00:29.446Z,20.40
2019-05-19T02:05:34.334Z,20.40
2019-05-19T02:10:39.599Z,20.40
2019-05-19T02:15:44.507Z,20.40
2019-05-19T02:20:49.423Z,20.30
2019-05-19T02:25:54.204Z,20.30
2019-05-19T02:30:59.565Z,20.30
2019-05-19T02:36:04.583Z,20.30
2019-05-19T02:41:11.912Z,20.30
2019-05-19T02:46:17.021Z,20.30
2019-05-19T02:51:22.529Z,20.20
2019-05-19T02:56:29.223Z,20.20
2019-05-19T03:01:35.609Z,20.20
2019-05-19T03:06:40.721Z,20.20
2019-05-19T03:11:45.563Z,20.10
2019-05-19T03:16:50.255Z,20.20
2019-05-19T03:21:55.255Z,20.10
2019-05-19T03:27:00.149Z,20.10
2019-05-19T03:32:21.740Z,20.10
2019-05-19T03:37:26.680Z,20.10
2019-05-19T03:42:31.398Z,20.10
2019-05-19T03:47:36.213Z,20.10
2019-05-19T03:52:41.047Z,20.10
2019-05-19T03:57:45.947Z,20.00
2019-05-19T04:02:50.702Z,20.00
2019-05-19T04:07:56.904Z,20.00
2019-05-19T04:13:01.622Z,20.00
2019-05-19T04:18:06.740Z,20.00
2019-05-19T04:23:11.464Z,20.00
2019-05-19T04:28:16.240Z,20.00
2019-05-19T04:33:21.001Z,20.00
2019-05-19T04:38:25.760Z,20.00
2019-05-19T04:43:30.866Z,20.00
2019-05-19T04:48:35.529Z,20.00
2019-05-19T04:53:40.275Z,20.00
2019-05-19T04:58:45.164Z,20.00
2019-05-19T05:03:49.984Z,20.00
2019-05-19T05:08:55.172Z,20.00
2019-05-19T05:13:59.817Z,20.00
2019-05-19T05:19:04.504Z,20.00
2019-05-19T05:24:09.477Z,20.00
2019-05-19T05:29:14.800Z,20.00
2019-05-19T05:34:19.620Z,20.00
2019-05-19T05:39:24.539Z,20.00
2019-05-19T05:44:29.308Z,20.00
2019-05-19T05:49:34.204Z,20.00
2019-05-19T05:54:39.404Z,20.00
2019-05-19T05:59:44.174Z,20.00
2019-05-19T06:04:49.364Z,19.90
2019-05-19T06:09:54.209Z,20.00
2019-05-19T06:14:59.325Z,19.90
2019-05-19T06:20:06.956Z,19.90
2019-05-19T06:25:12.124Z,19.90
2019-05-19T06:30:18.204Z,19.90
2019-05-19T06:35:23.066Z,19.90
2019-05-19T06:40:27.679Z,19.90
2019-05-19T06:45:32.618Z,20.00
2019-05-19T06:50:40.608Z,19.90
2019-05-19T06:55:44.474Z,20.00
2019-05-19T07:00:50.005Z,20.00
2019-05-19T07:05:54.975Z,20.00
2019-05-19T07:10:59.865Z,20.00
2019-05-19T07:16:04.772Z,20.00
2019-05-19T07:21:09.751Z,20.10
2019-05-19T07:26:15.167Z,20.00
2019-05-19T07:31:19.997Z,20.10
2019-05-19T07:36:24.817Z,20.10
2019-05-19T07:41:29.682Z,20.10
2019-05-19T07:46:34.856Z,20.10
2019-05-19T07:51:39.700Z,20.10
2019-05-19T07:56:44.602Z,20.10
2019-05-19T08:01:49.783Z,20.10
2019-05-19T08:06:54.978Z,20.10
2019-05-19T08:11:59.605Z,20.10
2019-05-19T08:17:04.867Z,20.10
2019-05-19T08:22:09.988Z,20.20
2019-05-19T08:27:15.045Z,20.20
2019-05-19T08:32:20.027Z,20.20
2019-05-19T08:37:25.037Z,20.20
2019-05-19T08:42:30.031Z,20.20
2019-05-19T08:47:35.368Z,20.20
2019-05-19T08:52:40.417Z,20.30
2019-05-19T08:57:45.269Z,20.30
2019-05-19T09:02:50.254Z,20.20
2019-05-19T09:07:54.843Z,20.20
2019-05-19T09:12:59.791Z,20.30
2019-05-19T09:18:04.766Z,20.30
2019-05-19T09:23:09.677Z,20.30
2019-05-19T09:28:15.290Z,20.30
2019-05-19T09:33:20.297Z,20.30
2019-05-19T09:38:25.119Z,20.30
2019-05-19T09:43:29.995Z,20.30
2019-05-19T09:48:35.086Z,20.30
2019-05-19T09:53:41.569Z,20.30
2019-05-19T09:58:46.463Z,20.30
2019-05-19T10:03:51.682Z,20.40
2019-05-19T10:09:01.603Z,20.40
2019-05-19T10:14:07.992Z,20.40
2019-05-19T10:19:13.085Z,20.40
2019-05-19T10:24:18.196Z,20.40
2019-05-19T10:29:23.237Z,20.40
2019-05-19T10:34:28.354Z,20.40
2019-05-19T10:39:34.261Z,20.50
2019-05-19T10:44:39.223Z,20.50
2019-05-19T10:49:44.173Z,20.50
2019-05-19T10:54:48.970Z,20.50
2019-05-19T10:59:53.933Z,20.50
2019-05-19T11:04:58.862Z,20.50
2019-05-19T11:10:04.714Z,20.50
2019-05-19T11:15:10.531Z,20.60
2019-05-19T11:20:15.319Z,20.60
2019-05-19T11:25:32.972Z,20.60
2019-05-19T11:30:26.802Z,20.60
2019-05-19T11:35:31.417Z,20.60
2019-05-19T11:40:36.319Z,20.60
2019-05-19T11:45:41.137Z,20.60
2019-05-19T11:50:45.954Z,20.70
2019-05-19T11:56:04.331Z,20.70
2019-05-19T12:00:57.369Z,20.70
2019-05-19T12:06:02.157Z,20.70
2019-05-19T12:11:07.399Z,20.70
2019-05-19T12:16:12.389Z,20.80
2019-05-19T12:21:17.146Z,20.90
2019-05-19T12:26:23.961Z,20.90
2019-05-19T12:31:28.837Z,21.20
2019-05-19T12:36:33.589Z,21.10
2019-05-19T12:41:38.372Z,21.00
2019-05-19T12:46:43.361Z,21.00
2019-05-19T12:51:48.341Z,21.10
2019-05-19T12:56:54.508Z,21.00
2019-05-19T13:01:59.470Z,21.00
2019-05-19T13:07:04.416Z,21.20
2019-05-19T13:12:09.318Z,21.20
2019-05-19T13:17:15.039Z,21.20
2019-05-19T13:22:20.453Z,21.20
2019-05-19T13:27:25.413Z,21.20
2019-05-19T13:32:30.230Z,21.30
2019-05-19T13:37:35.403Z,21.20
2019-05-19T13:42:40.630Z,21.20
2019-05-19T13:47:45.455Z,21.20
2019-05-19T13:52:51.764Z,21.20
2019-05-19T13:57:56.750Z,21.10
2019-05-19T14:03:01.824Z,21.10
2019-05-19T14:08:06.799Z,21.10
2019-05-19T14:13:11.714Z,21.10
2019-05-19T14:18:16.358Z,21.20
2019-05-19T14:23:21.067Z,21.20
2019-05-19T14:28:26.117Z,21.20
2019-05-19T14:33:30.877Z,21.20
2019-05-19T14:38:35.767Z,21.30
2019-05-19T14:43:40.631Z,21.30
2019-05-19T14:48:45.276Z,21.20
2019-05-19T14:53:50.170Z,21.30
2019-05-19T14:58:55.080Z,21.30
2019-05-19T15:04:00.015Z,21.40
2019-05-19T15:09:06.298Z,21.50
2019-05-19T15:14:11.239Z,21.60
2019-05-19T15:19:16.199Z,21.70
2019-05-19T15:24:21.432Z,21.70
2019-05-19T15:29:26.013Z,21.80
2019-05-19T15:34:30.868Z,21.80
2019-05-19T15:39:35.514Z,21.80
2019-05-19T15:44:40.700Z,21.80
2019-05-19T15:49:45.925Z,21.80
2019-05-19T15:54:50.943Z,21.80
2019-05-19T15:59:55.877Z,21.80
2019-05-19T16:05:01.059Z,21.80
2019-05-19T16:10:09.471Z,21.80
2019-05-19T16:15:16.573Z,21.70
2019-05-19T16:20:21.347Z,21.70
2019-05-19T16:25:26.417Z,21.70
2019-05-19T16:30:31.519Z,21.70
2019-05-19T16:35:36.604Z,21.80
2019-05-19T16:40:41.616Z,21.80
2019-05-19T16:45:47.959Z,21.80
2019-05-19T16:50:53.341Z,21.80
2019-05-19T16:55:58.327Z,21.80
2019-05-19T17:01:03.478Z,21.80
2019-05-19T17:06:08.521Z,21.80
2019-05-19T17:11:18.377Z,21.80
2019-05-19T17:16:20.013Z,21.80
2019-05-19T17:21:25.324Z,21.90
2019-05-19T17:26:30.203Z,21.80
2019-05-19T17:31:35.263Z,21.80
2019-05-19T17:36:40.318Z,21.80
2019-05-19T17:41:45.338Z,21.80
2019-05-19T17:46:50.558Z,21.80
2019-05-19T17:51:55.652Z,21.80
2019-05-19T17:57:01.311Z,21.80
2019-05-19T18:02:06.404Z,21.90
2019-05-19T18:07:11.720Z,21.90
2019-05-19T18:12:16.748Z,21.90
2019-05-19T18:17:21.788Z,21.90
2019-05-19T18:22:26.783Z,21.80
2019-05-19T18:27:31.627Z,21.90
2019-05-19T18:32:37.061Z,21.90
2019-05-19T18:37:41.889Z,21.90
2019-05-19T18:42:46.880Z,21.80
2019-05-19T18:47:51.985Z,21.80
2019-05-19T18:52:56.993Z,21.80
2019-05-19T18:58:02.001Z,21.80
2019-05-19T19:03:07.546Z,21.80
2019-05-19T19:08:12.543Z,21.80
2019-05-19T19:13:17.521Z,21.90
2019-05-19T19:18:23.396Z,21.80
2019-05-19T19:23:29.298Z,21.90
2019-05-19T19:28:34.402Z,21.90
2019-05-19T19:33:39.467Z,22.00
2019-05-19T19:38:44.490Z,22.00
2019-05-19T19:43:49.324Z,22.10
2019-05-19T19:48:54.235Z,22.00
2019-05-19T19:53:59.090Z,22.10
2019-05-19T19:59:04.013Z,22.00
2019-05-19T20:04:08.926Z,21.90
2019-05-19T20:09:14.740Z,21.90
2019-05-19T20:14:19.624Z,22.00
2019-05-19T20:19:24.658Z,22.00
2019-05-19T20:24:29.511Z,22.00
2019-05-19T20:29:34.433Z,22.00
2019-05-19T20:34:39.328Z,22.00
2019-05-19T20:39:45.238Z,22.00
2019-05-19T20:44:50.365Z,22.10
2019-05-19T20:49:55.501Z,22.10
2019-05-19T20:55:00.397Z,22.10
2019-05-19T21:00:09.265Z,22.10
2019-05-19T21:05:14.729Z,22.10
2019-05-19T21:10:20.821Z,22.10
2019-05-19T21:15:25.815Z,22.10
2019-05-19T21:20:30.653Z,22.10
2019-05-19T21:25:36.160Z,22.10
2019-05-19T21:30:41.034Z,22.10
2019-05-19T21:35:45.946Z,22.10
2019-05-19T21:40:50.797Z,22.10
2019-05-19T21:45:55.625Z,22.10
2019-05-19T21:51:00.283Z,22.00
2019-05-19T21:56:05.256Z,22.10
2019-05-19T22:01:22.318Z,22.00
2019-05-19T22:06:17.848Z,22.00
2019-05-19T22:11:22.810Z,22.00
2019-05-19T22:16:27.447Z,22.00
2019-05-19T22:21:32.631Z,22.00
2019-05-19T22:26:37.839Z,21.90
2019-05-19T22:31:42.603Z,21.90
2019-05-19T22:36:47.977Z,21.90
2019-05-19T22:41:52.882Z,21.90
2019-05-19T22:46:57.714Z,21.90
2019-05-19T22:52:03.349Z,21.90
2019-05-19T22:57:08.249Z,21.80
2019-05-19T23:02:13.231Z,21.80
2019-05-19T23:07:18.052Z,21.80
2019-05-19T23:12:23.141Z,21.80
2019-05-19T23:17:28.043Z,21.70
2019-05-19T23:22:32.776Z,21.70
2019-05-19T23:27:37.673Z,21.70
2019-05-19T23:32:42.598Z,21.70
2019-05-19T23:37:47.426Z,21.70
2019-05-19T23:42:52.262Z,21.70
2019-05-19T23:47:59.863Z,21.60
2019-05-19T23:53:04.691Z,21.60
2019-05-19T23:58:09.615Z,21.60
